Time;durP1;ratioP1;P1;durP2;ratioP2;P2;SDS_P1;SDS_P2;PMS_P1;PMS_P2;Temp;Humidity;BMP_temperature;BMP_pressure;BME280_temperature;BME280_humidity;BME280_pressure;Samples;Min_cycle;Max_cycle;Signal;HPM_P1;HPM_P2
2021/01/22 00:02:17;;;;;;;6.07;5.47;;;;;;;-144.05;100.00;64977.69;5081614;28;20101;-80
2021/01/22 00:04:44;;;;;;;6.97;6.27;;;;;;;-144.05;100.00;64977.69;5112576;28;20095;-81
2021/01/22 00:07:10;;;;;;;11.68;7.50;;;;;;;-144.05;100.00;64977.69;5092922;28;20124;-81
2021/01/22 00:09:35;;;;;;;8.38;6.88;;;;;;;-144.05;100.00;64977.69;5092599;28;20028;-81
2021/01/22 00:12:00;;;;;;;12.30;8.43;;;;;;;-144.05;100.00;64977.69;5086530;28;20035;-81
2021/01/22 00:14:26;;;;;;;14.33;10.00;;;;;;;-144.05;100.00;64977.69;5091882;28;20027;-81
2021/01/22 00:16:51;;;;;;;13.27;10.47;;;;;;;-144.05;100.00;64977.69;5095530;28;20069;-80
2021/01/22 00:19:17;;;;;;;9.33;7.40;;;;;;;-144.05;100.00;64977.69;5096565;28;20432;-80
2021/01/22 00:21:43;;;;;;;10.03;8.07;;;;;;;-144.05;100.00;64977.69;5095539;28;20114;-81
2021/01/22 00:24:08;;;;;;;;;;;;;;;-144.05;100.00;64977.69;5110318;28;20028;-81
2021/01/22 00:26:34;;;;;;;5.13;3.90;;;;;;;-144.05;100.00;64977.69;5095316;28;20286;-81
2021/01/22 00:28:59;;;;;;;7.43;3.53;;;;;;;-144.05;100.00;64977.69;5081437;28;20362;-81
2021/01/22 00:31:24;;;;;;;5.17;3.07;;;;;;;-144.05;100.00;64977.69;5093197;28;20024;-81
2021/01/22 00:33:50;;;;;;;2.87;2.27;;;;;;;-144.05;100.00;64977.69;5086528;28;20110;-81
2021/01/22 00:36:15;;;;;;;5.80;2.40;;;;;;;-144.05;100.00;64977.69;5100973;28;20044;-81
2021/01/22 00:38:40;;;;;;;3.50;1.93;;;;;;;-144.05;100.00;64977.69;5087961;28;20103;-81
2021/01/22 00:41:10;;;;;;;5.30;1.90;;;;;;;-144.05;100.00;64977.69;5088367;28;20122;-81
2021/01/22 00:43:35;;;;;;;3.45;2.10;;;;;;;-144.05;100.00;64977.69;5087345;28;20028;-82
2021/01/22 00:46:04;;;;;;;2.77;1.97;;;;;;;-144.05;100.00;64977.69;5101003;28;20042;-82
2021/01/22 00:48:29;;;;;;;4.07;2.38;;;;;;;-144.05;100.00;64977.69;5097549;28;20119;-82
2021/01/22 00:50:55;;;;;;;5.53;2.30;;;;;;;-144.05;100.00;64977.69;5087538;28;20476;-82
2021/01/22 00:53:21;;;;;;;4.35;2.42;;;;;;;-144.05;100.00;64977.69;5112942;28;20313;-81
2021/01/22 00:55:50;;;;;;;3.58;2.45;;;;;;;-144.05;100.00;64977.69;5092985;28;20040;-82
2021/01/22 00:58:15;;;;;;;4.32;2.45;;;;;;;-144.05;100.00;64977.69;5092239;28;20036;-82
2021/01/22 01:00:44;;;;;;;5.43;3.10;;;;;;;-144.05;100.00;64977.69;5085047;28;20027;-83
2021/01/22 01:03:09;;;;;;;3.85;2.60;;;;;;;-144.05;100.00;64977.69;5112274;28;20047;-82
2021/01/22 01:05:34;;;;;;;4.10;2.67;;;;;;;-144.05;100.00;64977.69;5089294;28;20124;-82
2021/01/22 01:08:00;;;;;;;4.67;3.23;;;;;;;-144.05;100.00;64977.69;5099495;28;20028;-82
2021/01/22 01:10:25;;;;;;;3.37;3.07;;;;;;;-144.05;100.00;64977.69;5100430;28;20155;-82
2021/01/22 01:12:50;;;;;;;3.83;3.30;;;;;;;-144.05;100.00;64977.69;5094685;28;20035;-82
2021/01/22 01:15:16;;;;;;;5.10;3.33;;;;;;;-144.05;100.00;64977.69;5086079;28;20358;-81
2021/01/22 01:17:42;;;;;;;4.93;3.70;;;;;;;-144.05;100.00;64977.69;5095354;28;20047;-82
2021/01/22 01:20:08;;;;;;;4.80;4.00;;;;;;;-144.05;100.00;64977.69;5099911;28;20102;-82
2021/01/22 01:22:34;;;;;;;6.47;4.80;;;;;;;-144.05;100.00;64977.69;5094285;28;20270;-82
2021/01/22 01:25:00;;;;;;;6.50;5.65;;;;;;;-144.05;100.00;64977.69;5084832;28;20035;-82
2021/01/22 01:27:25;;;;;;;9.20;6.10;;;;;;;-144.05;100.00;64977.69;5086255;28;20317;-82
2021/01/22 01:29:51;;;;;;;10.83;7.20;;;;;;;-144.05;100.00;64977.69;5084725;28;20020;-82
2021/01/22 01:32:16;;;;;;;10.07;8.50;;;;;;;-144.05;100.00;64977.69;5092221;28;20031;-82
2021/01/22 01:34:41;;;;;;;12.73;9.07;;;;;;;-144.05;100.00;64977.69;5082258;28;20093;-82
2021/01/22 01:37:07;;;;;;;12.77;11.20;;;;;;;-144.05;100.00;64977.69;5086606;28;20111;-82
2021/01/22 01:39:32;;;;;;;13.47;11.87;;;;;;;-144.05;100.00;64977.69;5099168;28;20035;-82
2021/01/22 01:41:57;;;;;;;17.50;14.17;;;;;;;-144.05;100.00;64977.69;5096420;28;20020;-82
2021/01/22 01:44:23;;;;;;;18.80;14.50;;;;;;;-144.05;100.00;64977.69;5095520;28;20053;-81
2021/01/22 01:46:48;;;;;;;16.83;14.87;;;;;;;-144.05;100.00;64977.69;5083276;28;20409;-81
2021/01/22 01:49:13;;;;;;;17.13;15.07;;;;;;;-144.05;100.00;64977.69;5094169;28;20078;-82
2021/01/22 01:51:39;;;;;;;19.47;17.23;;;;;;;-144.05;100.00;64977.69;5086023;28;20019;-82
2021/01/22 01:54:07;;;;;;;21.10;17.77;;;;;;;-144.05;100.00;64977.69;5114044;28;20324;-82
2021/01/22 01:56:33;;;;;;;20.67;16.60;;;;;;;-144.05;100.00;64977.69;5078857;28;20091;-81
2021/01/22 01:59:00;;;;;;;20.95;16.85;;;;;;;-144.05;100.00;64977.69;5089282;28;20067;-81
2021/01/22 02:01:26;;;;;;;18.23;15.93;;;;;;;-144.05;100.00;64977.69;5099246;28;20019;-81
2021/01/22 02:03:52;;;;;;;19.15;15.30;;;;;;;-144.05;100.00;64977.69;5096127;28;20028;-81
2021/01/22 02:06:18;;;;;;;22.52;15.80;;;;;;;-144.05;100.00;64977.69;5084334;28;20040;-81
2021/01/22 02:08:43;;;;;;;23.08;17.77;;;;;;;-144.05;100.00;64977.69;5085326;28;20031;-82
2021/01/22 02:11:12;;;;;;;19.27;15.45;;;;;;;-144.05;100.00;64977.69;5083205;28;20040;-82
2021/01/22 02:13:39;;;;;;;20.58;16.10;;;;;;;-144.05;100.00;64977.69;5064575;28;20020;-81
2021/01/22 02:16:05;;;;;;;19.40;16.08;;;;;;;-144.05;100.00;64977.69;5081796;28;20028;-82
2021/01/22 02:18:32;;;;;;;22.07;16.90;;;;;;;-144.05;100.00;64977.69;5092841;28;20420;-81
2021/01/22 02:21:19;;;;;;;19.00;15.27;;;;;;;-144.05;100.00;64977.69;5078270;28;20024;-81
2021/01/22 02:23:49;;;;;;;21.10;15.18;;;;;;;-144.05;100.00;64977.69;5082084;28;20035;-81
2021/01/22 02:26:30;;;;;;;18.98;15.10;;;;;;;-144.05;100.00;64977.69;5082115;28;20306;-81
2021/01/22 02:29:05;;;;;;;19.33;15.25;;;;;;;-144.05;100.00;64977.69;5097970;28;20042;-81
2021/01/22 02:31:37;;;;;;;18.30;14.23;;;;;;;-144.05;100.00;64977.69;5079503;28;20031;-81
2021/01/22 02:34:07;;;;;;;17.58;13.40;;;;;;;-144.05;100.00;64977.69;5070809;28;20069;-81
2021/01/22 02:36:42;;;;;;;19.65;13.55;;;;;;;-144.05;100.00;64977.69;5090678;28;20451;-81
2021/01/22 02:39:10;;;;;;;13.52;11.00;;;;;;;-144.05;100.00;64977.69;5097838;28;20028;-81
2021/01/22 02:41:38;;;;;;;15.50;10.45;;;;;;;-144.05;100.00;64977.69;5082824;28;20047;-81
2021/01/22 02:44:05;;;;;;;14.50;9.40;;;;;;;-144.05;100.00;64977.69;5096089;28;20026;-81
2021/01/22 02:46:31;;;;;;;13.40;8.20;;;;;;;-144.05;100.00;64977.69;5086194;28;20080;-81
2021/01/22 02:48:58;;;;;;;12.80;8.70;;;;;;;-144.05;100.00;64977.69;5085624;28;20027;-81
2021/01/22 02:51:27;;;;;;;12.57;7.68;;;;;;;-144.05;100.00;64977.69;5084236;28;20046;-81
2021/01/22 02:53:52;;;;;;;8.52;6.30;;;;;;;-144.05;100.00;64977.69;5080354;28;20024;-81
2021/01/22 02:56:52;;;;;;;6.53;5.30;;;;;;;-144.05;100.00;64977.69;5084755;28;20028;-81
2021/01/22 02:59:41;;;;;;;8.95;5.00;;;;;;;-144.05;100.00;64977.69;5083722;28;20040;-80
2021/01/22 03:02:09;;;;;;;9.27;4.68;;;;;;;-144.05;100.00;64977.69;5017292;28;20076;-80
2021/01/22 03:04:36;;;;;;;7.80;4.38;;;;;;;-144.05;100.00;64977.69;5015105;28;20129;-80
2021/01/22 03:07:07;;;;;;;5.95;3.72;;;;;;;-144.05;100.00;64977.69;5016906;28;20131;-81
2021/01/22 03:09:36;;;;;;;6.10;3.47;;;;;;;-144.05;100.00;64977.69;5016201;28;20040;-80
2021/01/22 03:12:03;;;;;;;6.72;3.30;;;;;;;-144.05;100.00;64977.69;5015737;28;20070;-80
2021/01/22 03:14:34;;;;;;;6.40;3.50;;;;;;;-144.05;100.00;64977.69;5021353;28;20080;-81
2021/01/22 03:17:00;;;;;;;6.65;3.30;;;;;;;-144.05;100.00;64977.69;5016432;28;20118;-81
2021/01/22 03:19:25;;;;;;;5.60;3.55;;;;;;;-144.05;100.00;64977.69;5033376;28;20116;-81
2021/01/22 03:21:51;;;;;;;7.77;3.70;;;;;;;-144.05;100.00;64977.69;5015729;28;20103;-81
2021/01/22 03:24:16;;;;;;;8.10;4.03;;;;;;;-144.05;100.00;64977.69;5016787;28;20386;-81
2021/01/22 03:26:42;;;;;;;9.73;4.27;;;;;;;-144.05;100.00;64977.69;5003219;28;20192;-81
2021/01/22 03:29:07;;;;;;;6.47;4.53;;;;;;;-144.05;100.00;64977.69;5016522;28;20107;-81
2021/01/22 03:31:34;;;;;;;9.10;5.57;;;;;;;-144.05;100.00;64977.69;5017811;28;20033;-81
2021/01/22 03:33:59;;;;;;;8.05;4.78;;;;;;;-144.05;100.00;64977.69;5033197;28;20033;-80
2021/01/22 03:36:24;;;;;;;9.83;5.63;;;;;;;-144.05;100.00;64977.69;5016077;28;20045;-81
2021/01/22 03:38:50;;;;;;;9.60;5.97;;;;;;;-144.05;100.00;64977.69;5042667;28;20031;-81
2021/01/22 03:41:15;;;;;;;13.33;7.30;;;;;;;-144.05;100.00;64977.69;5093780;28;20028;-80
2021/01/22 03:43:40;;;;;;;11.87;7.50;;;;;;;-144.05;100.00;64977.69;5075861;28;20457;-81
2021/01/22 03:46:06;;;;;;;13.00;7.90;;;;;;;-144.05;100.00;64977.69;5076419;28;20371;-81
2021/01/22 03:48:34;;;;;;;16.07;9.23;;;;;;;-144.05;100.00;64977.69;5077534;28;20031;-80
2021/01/22 03:51:00;;;;;;;15.00;9.95;;;;;;;-144.05;100.00;64977.69;5080765;28;20104;-80
2021/01/22 03:53:25;;;;;;;20.53;10.97;;;;;;;-144.05;100.00;64977.69;5083748;28;20494;-80
2021/01/22 03:55:50;;;;;;;19.90;11.33;;;;;;;-144.05;100.00;64977.69;5083974;28;20028;-80
2021/01/22 03:58:16;;;;;;;19.00;11.80;;;;;;;-144.05;100.00;64977.69;5080967;28;20409;-80
2021/01/22 04:00:43;;;;;;;23.10;13.10;;;;;;;-144.05;100.00;64977.69;5080414;28;20421;-81
2021/01/22 04:03:08;;;;;;;22.88;13.88;;;;;;;-144.05;100.00;64977.69;5081214;28;20024;-81
2021/01/22 04:05:33;;;;;;;23.60;13.70;;;;;;;-144.05;100.00;64977.69;5081127;28;20020;-81
2021/01/22 04:07:59;;;;;;;20.77;13.23;;;;;;;-144.05;100.00;64977.69;5081053;28;20020;-81
2021/01/22 04:10:25;;;;;;;21.47;13.60;;;;;;;-144.05;100.00;64977.69;5081058;28;20040;-81
2021/01/22 04:12:50;;;;;;;23.40;13.13;;;;;;;-144.05;100.00;64977.69;5080533;28;20370;-81
2021/01/22 04:15:16;;;;;;;22.40;13.17;;;;;;;-144.05;100.00;64977.69;5080802;28;20066;-81
2021/01/22 04:17:41;;;;;;;22.63;13.77;;;;;;;-144.05;100.00;64977.69;5080222;28;20413;-81
2021/01/22 04:20:07;;;;;;;18.23;13.40;;;;;;;-144.05;100.00;64977.69;5080694;28;20107;-81
2021/01/22 04:22:35;;;;;;;26.92;15.52;;;;;;;-144.05;100.00;64977.69;5098641;28;20186;-80
2021/01/22 04:25:01;;;;;;;22.95;13.90;;;;;;;-144.05;100.00;64977.69;5079582;28;20085;-80
2021/01/22 04:27:26;;;;;;;25.87;15.40;;;;;;;-144.05;100.00;64977.69;5079667;28;20431;-80
2021/01/22 04:29:51;;;;;;;25.90;15.60;;;;;;;-144.05;100.00;64977.69;5079870;28;20042;-80
2021/01/22 04:32:17;;;;;;;26.63;16.27;;;;;;;-144.05;100.00;64977.69;5080737;28;20028;-80
2021/01/22 04:34:42;;;;;;;27.03;15.30;;;;;;;-144.05;100.00;64977.69;5079987;28;20100;-80
2021/01/22 04:37:07;;;;;;;28.37;16.87;;;;;;;-144.05;100.00;64977.69;5098408;28;20421;-80
2021/01/22 04:39:35;;;;;;;30.67;18.07;;;;;;;-144.05;100.00;64977.69;5080808;28;20051;-80
2021/01/22 04:42:01;;;;;;;29.00;16.98;;;;;;;-144.05;100.00;64977.69;5080619;28;20428;-80
2021/01/22 04:44:26;;;;;;;;;;;;;;;-144.05;100.00;64977.69;5080492;28;20089;-80
2021/01/22 04:46:52;;;;;;;32.40;18.43;;;;;;;-144.05;100.00;64977.69;5079770;28;19915;-80
2021/01/22 04:49:20;;;;;;;30.55;16.90;;;;;;;-144.05;100.00;64977.69;5080217;28;20285;-80
2021/01/22 04:51:56;;;;;;;28.83;18.20;;;;;;;-144.05;100.00;64977.69;5079446;28;20026;-80
2021/01/22 04:54:27;;;;;;;30.88;18.80;;;;;;;-144.05;100.00;64977.69;5097828;28;20039;-80
2021/01/22 04:56:56;;;;;;;31.15;19.35;;;;;;;-144.05;100.00;64977.69;5078859;28;20043;-80
2021/01/22 04:59:31;;;;;;;34.38;20.80;;;;;;;-144.05;100.00;64977.69;5078252;28;20396;-80
2021/01/22 05:01:58;;;;;;;32.42;20.00;;;;;;;-144.05;100.00;64977.69;5096226;28;20066;-80
2021/01/22 05:04:24;;;;;;;30.85;19.23;;;;;;;-144.05;100.00;64977.69;5083901;28;20128;-80
2021/01/22 05:06:50;;;;;;;29.60;19.67;;;;;;;-144.05;100.00;64977.69;5083901;28;20119;-80
2021/01/22 05:09:17;;;;;;;32.30;19.67;;;;;;;-144.05;100.00;64977.69;5106858;28;20066;-80
2021/01/22 05:11:42;;;;;;;30.95;20.05;;;;;;;-144.05;100.00;64977.69;5087959;28;20109;-80
2021/01/22 05:14:09;;;;;;;31.23;20.10;;;;;;;-144.05;100.00;64977.69;5084814;28;20023;-80
2021/01/22 05:16:34;;;;;;;32.92;20.52;;;;;;;-144.05;100.00;64977.69;5092519;28;20317;-81
2021/01/22 05:19:19;;;;;;;31.67;20.43;;;;;;;-144.05;100.00;64977.69;5085583;28;20023;-80
2021/01/22 05:21:45;;;;;;;33.28;21.48;;;;;;;-144.05;100.00;64977.69;5091288;28;20019;-80
2021/01/22 05:24:25;;;;;;;36.50;21.50;;;;;;;-144.05;100.00;64977.69;5103992;28;20423;-81
2021/01/22 05:27:01;;;;;;;35.63;22.05;;;;;;;-144.05;100.00;64977.69;5101258;28;20484;-80
2021/01/22 05:29:28;;;;;;;40.25;22.98;;;;;;;-144.05;100.00;64977.69;5085127;28;20023;-80
2021/01/22 05:31:53;;;;;;;38.10;22.13;;;;;;;-144.05;100.00;64977.69;5082850;28;20028;-80
2021/01/22 05:34:19;;;;;;;36.67;23.00;;;;;;;-144.05;100.00;64977.69;5082032;28;20042;-80
2021/01/22 05:36:47;;;;;;;42.20;24.80;;;;;;;-144.05;100.00;64977.69;5101179;28;20020;-80
2021/01/22 05:39:21;;;;;;;39.55;24.05;;;;;;;-144.05;100.00;64977.69;5085987;28;20385;-80
2021/01/22 05:41:51;;;;;;;38.15;22.90;;;;;;;-144.05;100.00;64977.69;5085518;28;20038;-80
2021/01/22 05:44:25;;;;;;;37.83;23.38;;;;;;;-144.05;100.00;64977.69;5079019;28;20020;-80
2021/01/22 05:47:10;;;;;;;34.20;21.88;;;;;;;-144.05;100.00;64977.69;5084223;28;20080;-80
2021/01/22 05:50:00;;;;;;;36.67;23.08;;;;;;;-144.05;100.00;64977.69;5082431;28;20031;-80
2021/01/22 05:52:26;;;;;;;36.25;22.60;;;;;;;-144.05;100.00;64977.69;5066880;28;20417;-80
2021/01/22 05:54:52;;;;;;;39.30;22.80;;;;;;;-144.05;100.00;64977.69;5078917;28;20131;-80
2021/01/22 05:57:18;;;;;;;34.63;22.75;;;;;;;-144.05;100.00;64977.69;5065269;28;20016;-80
2021/01/22 05:59:44;;;;;;;40.47;22.70;;;;;;;-144.05;100.00;64977.69;5078960;28;20052;-80
2021/01/22 06:02:31;;;;;;;40.63;23.73;;;;;;;-144.05;100.00;64977.69;5078950;28;20051;-80
2021/01/22 06:05:10;;;;;;;35.78;22.20;;;;;;;-144.05;100.00;64977.69;5078544;28;20116;-80
2021/01/22 06:07:37;;;;;;;37.20;22.92;;;;;;;-144.05;100.00;64977.69;5065816;28;20412;-80
2021/01/22 06:10:20;;;;;;;40.58;24.52;;;;;;;-144.05;100.00;64977.69;5078061;28;20051;-80
2021/01/22 06:12:51;;;;;;;41.42;25.90;;;;;;;-144.05;100.00;64977.69;5065682;28;20023;-80
2021/01/22 06:15:18;;;;;;;45.65;25.70;;;;;;;-144.05;100.00;64977.69;5076990;28;20058;-80
2021/01/22 06:17:52;;;;;;;42.38;25.15;;;;;;;-144.05;100.00;64977.69;5077891;28;20351;-80
2021/01/22 06:20:23;;;;;;;43.13;24.02;;;;;;;-144.05;100.00;64977.69;5077897;28;20036;-80
2021/01/22 06:23:11;;;;;;;37.08;24.60;;;;;;;-144.05;100.00;64977.69;5077876;28;20060;-80
2021/01/22 06:25:39;;;;;;;43.55;23.20;;;;;;;-144.05;100.00;64977.69;5072940;28;20424;-79
2021/01/22 06:28:06;;;;;;;45.03;25.75;;;;;;;-144.05;100.00;64977.69;5078218;28;20028;-79
2021/01/22 06:30:33;;;;;;;46.33;23.75;;;;;;;-144.05;100.00;64977.69;5078607;28;20030;-80
2021/01/22 06:33:00;;;;;;;49.00;27.15;;;;;;;-144.05;100.00;64977.69;5078026;28;20023;-79
2021/01/22 06:35:30;;;;;;;44.42;25.48;;;;;;;-144.05;100.00;64977.69;5077536;28;20044;-79
2021/01/22 06:37:57;;;;;;;48.90;26.15;;;;;;;-144.05;100.00;64977.69;5077846;28;20038;-79
2021/01/22 06:40:23;;;;;;;45.45;25.42;;;;;;;-144.05;100.00;64977.69;5094127;28;20074;-79
2021/01/22 06:42:49;;;;;;;47.20;25.15;;;;;;;-144.05;100.00;64977.69;5076800;28;20409;-78
2021/01/22 06:45:18;;;;;;;43.85;24.08;;;;;;;-144.05;100.00;64977.69;5077686;28;20028;-79
2021/01/22 06:48:05;;;;;;;46.50;25.25;;;;;;;-144.05;100.00;64977.69;5095391;28;20020;-78
2021/01/22 06:50:32;;;;;;;46.13;25.08;;;;;;;-144.05;100.00;64977.69;5093981;28;20028;-78
2021/01/22 06:53:14;;;;;;;41.22;25.17;;;;;;;-144.05;100.00;64977.69;5075409;28;20032;-79
2021/01/22 06:56:06;;;;;;;47.60;25.98;;;;;;;-144.05;100.00;64977.69;5076495;28;20028;-79
2021/01/22 06:58:31;;;;;;;44.85;25.60;;;;;;;-144.05;100.00;64977.69;5078360;28;20124;-79
2021/01/22 07:00:58;;;;;;;43.65;25.08;;;;;;;-144.05;100.00;64977.69;5102309;28;20040;-79
2021/01/22 07:03:36;;;;;;;42.58;24.75;;;;;;;-144.05;100.00;64977.69;5099413;28;20024;-79
2021/01/22 07:06:03;;;;;;;47.70;24.92;;;;;;;-144.05;100.00;64977.69;5066850;28;20033;-81
2021/01/22 07:08:54;;;;;;;46.72;26.27;;;;;;;-144.05;100.00;64977.69;5067568;28;20068;-82
2021/01/22 07:11:21;;;;;;;48.30;24.67;;;;;;;-144.05;100.00;64977.69;4993851;28;20038;-81
2021/01/22 07:13:47;;;;;;;49.10;26.33;;;;;;;-144.05;100.00;64977.69;4977810;28;20046;-81
2021/01/22 07:16:18;;;;;;;42.63;25.40;;;;;;;-144.05;100.00;64977.69;4985661;28;20042;-82
2021/01/22 07:18:56;;;;;;;43.88;23.83;;;;;;;-144.05;100.00;64977.69;4998754;28;20089;-83
2021/01/22 07:21:32;;;;;;;44.10;25.75;;;;;;;-144.05;100.00;64977.69;4984672;28;20038;-83
2021/01/22 07:24:04;;;;;;;38.38;22.88;;;;;;;-144.05;100.00;64977.69;5006790;28;20097;-83
2021/01/22 07:26:37;;;;;;;45.97;23.90;;;;;;;-144.05;100.00;64977.69;5001608;28;20031;-83
2021/01/22 07:29:24;;;;;;;44.78;24.42;;;;;;;-144.05;100.00;64977.69;4987757;28;20432;-82
2021/01/22 07:31:56;;;;;;;;;;;;;;;-144.05;100.00;64977.69;4993090;28;20038;-83
2021/01/22 07:34:58;;;;;;;43.17;24.08;;;;;;;-144.05;100.00;64977.69;4997220;28;19917;-80
2021/01/22 07:37:25;;;;;;;42.35;23.15;;;;;;;-144.05;100.00;64977.69;4995155;28;20027;-79
2021/01/22 07:39:53;;;;;;;42.05;23.48;;;;;;;-144.05;100.00;64977.69;4981896;28;20041;-81
2021/01/22 07:42:23;;;;;;;37.92;22.92;;;;;;;-144.05;100.00;64977.69;4997962;28;20133;-82
2021/01/22 07:44:51;;;;;;;38.40;23.48;;;;;;;-144.05;100.00;64977.69;4997046;28;20041;-79
2021/01/22 07:47:46;;;;;;;40.00;23.27;;;;;;;-144.05;100.00;64977.69;4994428;28;20337;-79
2021/01/22 07:50:17;;;;;;;51.63;24.88;;;;;;;-144.05;100.00;64977.69;5072604;28;20035;-77
2021/01/22 07:52:44;;;;;;;42.45;23.67;;;;;;;-144.05;100.00;64977.69;5083566;28;20028;-79
2021/01/22 07:55:23;;;;;;;50.60;24.65;;;;;;;-144.05;100.00;64977.69;5071768;28;20146;-80
2021/01/22 07:58:03;;;;;;;44.47;24.80;;;;;;;-144.05;100.00;64977.69;5080057;28;20039;-81
2021/01/22 08:00:40;;;;;;;51.88;25.08;;;;;;;-144.05;100.00;64977.69;5085481;28;20020;-73
2021/01/22 08:03:06;;;;;;;47.15;24.67;;;;;;;-144.05;100.00;64977.69;5097964;28;20329;-79
2021/01/22 08:05:33;;;;;;;44.67;24.13;;;;;;;-144.05;100.00;64977.69;5088378;28;20027;-81
2021/01/22 08:07:59;;;;;;;45.03;24.65;;;;;;;-144.05;100.00;64977.69;5087030;28;20043;-81
2021/01/22 08:10:29;;;;;;;45.22;24.90;;;;;;;-144.05;100.00;64977.69;5084704;28;20160;-80
2021/01/22 08:12:57;;;;;;;44.15;23.52;;;;;;;-144.05;100.00;64977.69;5088954;28;20020;-79
2021/01/22 08:15:23;;;;;;;39.70;23.15;;;;;;;-144.05;100.00;64977.69;5085067;28;20099;-80
2021/01/22 08:17:49;;;;;;;40.05;23.08;;;;;;;-144.05;100.00;64977.69;5084098;28;20126;-76
2021/01/22 08:20:15;;;;;;;;;;;;;;;-144.05;100.00;64977.69;5084245;28;20031;-79
2021/01/22 08:22:41;;;;;;;39.30;23.00;;;;;;;-144.05;100.00;64977.69;5103048;28;19912;-79
2021/01/22 08:25:07;;;;;;;41.50;23.77;;;;;;;-144.05;100.00;64977.69;5114150;28;20437;-80
2021/01/22 08:27:33;;;;;;;37.92;22.38;;;;;;;-144.05;100.00;64977.69;5108603;28;20027;-79
2021/01/22 08:30:00;;;;;;;41.73;22.60;;;;;;;-144.05;100.00;64977.69;5103933;28;20019;-80
2021/01/22 08:32:27;;;;;;;44.22;23.75;;;;;;;-144.05;100.00;64977.69;5107250;28;20081;-79
2021/01/22 08:34:52;;;;;;;43.17;24.20;;;;;;;-144.05;100.00;64977.69;5090569;28;20052;-79
2021/01/22 08:37:20;;;;;;;48.93;23.50;;;;;;;-144.05;100.00;64977.69;5105555;28;20038;-78
2021/01/22 08:39:49;;;;;;;39.55;22.30;;;;;;;-144.05;100.00;64977.69;5108570;28;20110;-79
2021/01/22 08:42:15;;;;;;;41.47;24.38;;;;;;;-144.05;100.00;64977.69;5108811;28;20396;-80
2021/01/22 08:44:57;;;;;;;40.00;21.92;;;;;;;-144.05;100.00;64977.69;5108529;28;20024;-83
2021/01/22 08:47:23;;;;;;;35.17;20.50;;;;;;;-144.05;100.00;64977.69;5085354;28;20031;-81
2021/01/22 08:49:55;;;;;;;40.83;21.08;;;;;;;-144.05;100.00;64977.69;5106632;28;20030;-82
2021/01/22 08:52:21;;;;;;;44.38;23.77;;;;;;;-144.05;100.00;64977.69;5098005;28;20059;-79
2021/01/22 08:54:49;;;;;;;40.08;21.25;;;;;;;-144.05;100.00;64977.69;5098038;28;20066;-79
2021/01/22 08:57:15;;;;;;;34.72;20.90;;;;;;;-144.05;100.00;64977.69;5078960;28;20032;-80
2021/01/22 08:59:54;;;;;;;41.47;20.63;;;;;;;-144.05;100.00;64977.69;5098043;28;20118;-79
2021/01/22 09:02:43;;;;;;;35.65;21.83;;;;;;;-144.05;100.00;64977.69;5097731;28;20069;-80
2021/01/22 09:05:11;;;;;;;42.75;21.95;;;;;;;-144.05;100.00;64977.69;5079782;28;20066;-79
2021/01/22 09:07:38;;;;;;;35.60;20.70;;;;;;;-144.05;100.00;64977.69;5098256;28;20016;-79
2021/01/22 09:10:05;;;;;;;41.88;19.70;;;;;;;-144.05;100.00;64977.69;5080046;28;20413;-78
2021/01/22 09:12:32;;;;;;;33.00;19.77;;;;;;;-144.05;100.00;64977.69;5079577;28;20393;-78
2021/01/22 09:15:02;;;;;;;37.75;21.10;;;;;;;-144.05;100.00;64977.69;5098290;28;20127;-80
2021/01/22 09:17:33;;;;;;;33.90;19.50;;;;;;;-144.05;100.00;64977.69;5099674;28;20030;-80
2021/01/22 09:20:00;;;;;;;31.48;19.23;;;;;;;-144.05;100.00;64977.69;5080180;28;20063;-80
2021/01/22 09:22:30;;;;;;;31.17;19.30;;;;;;;-144.05;100.00;64977.69;5097423;28;20039;-81
2021/01/22 09:24:56;;;;;;;34.35;19.33;;;;;;;-144.05;100.00;64977.69;5097412;28;20028;-80
2021/01/22 09:27:22;;;;;;;38.92;19.83;;;;;;;-144.05;100.00;64977.69;5078829;28;20039;-81
2021/01/22 09:29:47;;;;;;;42.30;19.77;;;;;;;-144.05;100.00;64977.69;5098364;28;20024;-79
2021/01/22 09:32:13;;;;;;;33.57;18.60;;;;;;;-144.05;100.00;64977.69;5097179;28;20049;-79
2021/01/22 09:34:38;;;;;;;34.70;18.73;;;;;;;-144.05;100.00;64977.69;5078828;28;20038;-80
2021/01/22 09:37:03;;;;;;;38.93;19.50;;;;;;;-144.05;100.00;64977.69;5097234;28;20032;-79
2021/01/22 09:39:29;;;;;;;31.93;18.60;;;;;;;-144.05;100.00;64977.69;5079445;28;20413;-80
2021/01/22 09:41:54;;;;;;;33.13;18.23;;;;;;;-144.05;100.00;64977.69;5097607;28;20020;-81
2021/01/22 09:44:20;;;;;;;34.97;17.87;;;;;;;-144.05;100.00;64977.69;5097648;28;20044;-81
2021/01/22 09:46:45;;;;;;;31.60;16.80;;;;;;;-144.05;100.00;64977.69;5096849;28;20030;-81
2021/01/22 09:49:11;;;;;;;31.60;17.47;;;;;;;-144.05;100.00;64977.69;5097523;28;20036;-82
2021/01/22 09:51:36;;;;;;;33.13;16.48;;;;;;;-144.05;100.00;64977.69;5097289;28;20032;-80
2021/01/22 09:54:02;;;;;;;30.07;16.00;;;;;;;-144.05;100.00;64977.69;5099458;28;20024;-80
2021/01/22 09:56:27;;;;;;;32.05;16.80;;;;;;;-144.05;100.00;64977.69;5097503;28;20022;-79
2021/01/22 09:58:53;;;;;;;29.60;16.43;;;;;;;-144.05;100.00;64977.69;5079090;28;20516;-80
2021/01/22 10:01:18;;;;;;;28.03;16.03;;;;;;;-144.05;100.00;64977.69;5078662;28;20368;-82
2021/01/22 10:03:43;;;;;;;29.87;15.23;;;;;;;-144.05;100.00;64977.69;5078318;28;20027;-80
2021/01/22 10:06:12;;;;;;;22.43;14.17;;;;;;;-144.05;100.00;64977.69;5079263;28;20047;-81
2021/01/22 10:08:38;;;;;;;24.83;14.70;;;;;;;-144.05;100.00;64977.69;5097022;28;20413;-82
2021/01/22 10:11:03;;;;;;;26.25;14.23;;;;;;;-144.05;100.00;64977.69;5079337;28;20444;-84
2021/01/22 10:13:29;;;;;;;27.90;14.33;;;;;;;-144.05;100.00;64977.69;5078922;28;20032;-80
2021/01/22 10:15:54;;;;;;;29.67;14.13;;;;;;;-144.05;100.00;64977.69;5078752;28;20034;-82
2021/01/22 10:18:20;;;;;;;21.98;12.55;;;;;;;-144.05;100.00;64977.69;5079190;28;20024;-82
2021/01/22 10:20:48;;;;;;;24.47;11.47;;;;;;;-144.05;100.00;64977.69;5078864;28;20447;-82
2021/01/22 10:23:14;;;;;;;21.52;12.07;;;;;;;-144.05;100.00;64977.69;5078863;28;20068;-81
2021/01/22 10:25:39;;;;;;;24.63;11.67;;;;;;;-144.05;100.00;64977.69;5093028;28;20160;-80
2021/01/22 10:28:05;;;;;;;26.97;12.20;;;;;;;-144.05;100.00;64977.69;5082362;28;20028;-81
2021/01/22 10:30:30;;;;;;;27.07;12.37;;;;;;;-144.05;100.00;64977.69;5078531;28;20278;-81
2021/01/22 10:32:56;;;;;;;24.20;11.83;;;;;;;-144.05;100.00;64977.69;5077572;28;20036;-84
2021/01/22 10:35:21;;;;;;;23.98;10.80;;;;;;;-144.05;100.00;64977.69;5078353;28;20047;-81
2021/01/22 10:37:47;;;;;;;21.80;10.40;;;;;;;-144.05;100.00;64977.69;5078309;28;20055;-81
2021/01/22 10:40:13;;;;;;;21.80;11.07;;;;;;;-144.05;100.00;64977.69;5078656;28;20036;-83
2021/01/22 10:42:38;;;;;;;21.58;10.02;;;;;;;-144.05;100.00;64977.69;5078191;28;20022;-83
2021/01/22 10:45:04;;;;;;;20.80;10.33;;;;;;;-144.05;100.00;64977.69;5078313;28;20054;-82
2021/01/22 10:47:30;;;;;;;21.42;11.38;;;;;;;-144.05;100.00;64977.69;5078173;28;20032;-81
2021/01/22 10:49:56;;;;;;;22.75;10.13;;;;;;;-144.05;100.00;64977.69;5095662;28;20354;-80
2021/01/22 10:52:21;;;;;;;17.02;9.70;;;;;;;-144.05;100.00;64977.69;5096415;28;20046;-82
2021/01/22 10:54:46;;;;;;;25.27;10.50;;;;;;;-144.05;100.00;64977.69;5096272;28;20028;-81
2021/01/22 10:57:12;;;;;;;19.33;8.93;;;;;;;-144.05;100.00;64977.69;5096056;28;20030;-80
2021/01/22 10:59:37;;;;;;;22.07;10.77;;;;;;;-144.05;100.00;64977.69;5077870;28;20054;-80
2021/01/22 11:02:07;;;;;;;20.60;10.23;;;;;;;-144.05;100.00;64977.69;5095977;28;20111;-78
2021/01/22 11:04:32;;;;;;;18.27;9.27;;;;;;;-144.05;100.00;64977.69;5096233;28;20417;-81
2021/01/22 11:06:58;;;;;;;18.47;8.37;;;;;;;-144.05;100.00;64977.69;5091347;28;20035;-80